首页
METAR-TAF:

METAR-TAF

机场 :

Rutland Southern Vermont Regional Airport

拉特蘭, 佛蒙特州, 美国

纬度: 43-32N, 经度: 072-57W, 海拔: 240米

当前天气观测

该预报发布于39分钟前的04:56 UTC
风速3节,风向西
温度 -6°C
湿度 79%
气压 1011 hPa
能見度: 16.1公里
阴天层高于2000英尺

METAR: KRUT 190456Z AUTO 26003KT 10SM OVC020 M06/M09 A2986 RMK AO2 SLP118 T10611089 400111061 FZRANO $

时间: 00:35 (05:35 UTC)

预报

该预报发布于15分钟前的05:20 UTC
预报有效从19日的 06点(UTC)到 20日的 06点(UTC)
风速4节,风向多变
能見度: 10公里
阴天层高于2000英尺
从 19日的 1200点(UTC)
风速3节,风向多变
能見度: 10公里
散云层高于6000英尺
从 19日的 2000点(UTC)
风速3节,风向多变
能見度: 10公里
多云层高于3000英尺
从 20日的 0400点(UTC)
风速7节,风向西南
能見度: 10公里
多云层高于3500英尺

TAF: KRUT 190520Z 1906/2006 VRB04KT P6SM OVC020 FM191200 VRB03KT P6SM SCT060 FM192000 VRB03KT P6SM BKN030 FM200400 23007KT P6SM BKN035

超过4000个机场的气象观测和天气预报(METAR&TAF报告)。

可查询的气象台以黄色和红色小点在地图上表示。

将鼠标移到小点上方,可查看气象台名称。

然后点击查看天气观测和预报。

如需切换地图:点击带黑十字的绿色按钮放大地图;点击带横线的绿色按钮缩小地图;或者点击绿色箭头查看邻近地区的地图。


METAR-TAF: